createdAt,value
2019-04-07T00:01:33.049Z,6.00
2019-04-07T00:03:59.797Z,6.37
2019-04-07T00:06:26.104Z,6.17
2019-04-07T00:08:52.258Z,5.50
2019-04-07T00:11:18.885Z,5.70
2019-04-07T00:13:45.905Z,5.95
2019-04-07T00:16:12.060Z,5.97
2019-04-07T00:18:38.804Z,5.75
2019-04-07T00:21:05.014Z,5.37
2019-04-07T00:23:31.173Z,5.83
2019-04-07T00:25:57.772Z,6.05
2019-04-07T00:28:23.973Z,5.50
2019-04-07T00:30:50.134Z,5.78
2019-04-07T00:33:16.290Z,6.42
2019-04-07T00:35:42.431Z,6.15
2019-04-07T00:38:08.586Z,5.72
2019-04-07T00:40:34.908Z,6.37
2019-04-07T00:43:01.108Z,5.92
2019-04-07T00:45:27.270Z,6.28
2019-04-07T00:47:53.687Z,5.83
2019-04-07T00:50:20.475Z,5.50
2019-04-07T00:52:46.711Z,5.90
2019-04-07T00:55:13.040Z,5.40
2019-04-07T00:57:39.193Z,5.70
2019-04-07T01:00:05.885Z,6.28
2019-04-07T01:02:32.288Z,5.22
2019-04-07T01:04:58.461Z,5.45
2019-04-07T01:07:24.642Z,5.97
2019-04-07T01:09:50.815Z,6.20
2019-04-07T01:12:16.986Z,6.08
2019-04-07T01:14:43.409Z,5.20
2019-04-07T01:17:09.674Z,5.40
2019-04-07T01:19:36.561Z,5.95
2019-04-07T01:22:03.200Z,5.47
2019-04-07T01:24:30.002Z,5.17
2019-04-07T01:26:56.737Z,5.55
2019-04-07T01:29:23.495Z,5.65
2019-04-07T01:31:49.651Z,6.10
2019-04-07T01:34:15.985Z,5.50
2019-04-07T01:36:42.863Z,5.97
2019-04-07T01:39:09.156Z,5.87
2019-04-07T01:41:35.602Z,5.85
2019-04-07T01:44:02.594Z,5.45
2019-04-07T01:46:28.884Z,5.28
2019-04-07T01:48:55.262Z,6.10
2019-04-07T01:51:22.062Z,5.58
2019-04-07T01:53:48.311Z,5.72
2019-04-07T01:56:15.639Z,5.22
2019-04-07T01:58:41.911Z,5.37
2019-04-07T02:01:08.140Z,5.83
2019-04-07T02:03:34.356Z,5.90
2019-04-07T02:06:02.612Z,5.03
2019-04-07T02:08:28.379Z,5.55
2019-04-07T02:10:55.077Z,5.75
2019-04-07T02:13:21.507Z,5.80
2019-04-07T02:15:48.193Z,5.00
2019-04-07T02:18:14.763Z,5.58
2019-04-07T02:20:41.260Z,5.62
2019-04-07T02:23:07.540Z,5.87
2019-04-07T02:25:33.702Z,5.78
2019-04-07T02:28:00.074Z,5.33
2019-04-07T02:30:26.289Z,5.70
2019-04-07T02:32:52.575Z,5.92
2019-04-07T02:35:18.834Z,5.95
2019-04-07T02:37:45.847Z,5.45
2019-04-07T02:40:12.202Z,5.12
2019-04-07T02:42:39.463Z,5.75
2019-04-07T02:45:05.856Z,5.60
2019-04-07T02:47:32.157Z,5.72
2019-04-07T02:49:58.353Z,5.28
2019-04-07T02:52:25.120Z,5.70
2019-04-07T02:54:51.542Z,5.72
2019-04-07T02:57:18.907Z,5.03
2019-04-07T02:59:46.248Z,4.90
2019-04-07T03:02:12.643Z,5.10
2019-04-07T03:04:38.804Z,5.53
2019-04-07T03:07:05.026Z,5.50
2019-04-07T03:09:32.261Z,5.25
2019-04-07T03:11:59.585Z,5.25
2019-04-07T03:14:26.290Z,5.40
2019-04-07T03:16:52.751Z,4.62
2019-04-07T03:19:19.361Z,4.58
2019-04-07T03:21:45.852Z,5.03
2019-04-07T03:24:12.466Z,5.85
2019-04-07T03:26:38.801Z,5.72
2019-04-07T03:29:05.317Z,5.15
2019-04-07T03:31:32.568Z,5.37
2019-04-07T03:34:01.245Z,4.90
2019-04-07T03:36:29.931Z,4.95
2019-04-07T03:38:55.744Z,5.00
2019-04-07T03:41:21.964Z,4.90
2019-04-07T03:43:48.167Z,6.92
2019-04-07T03:46:14.356Z,27.60
2019-04-07T03:48:41.518Z,20.57
2019-04-07T03:51:08.967Z,37.20
2019-04-07T03:53:35.699Z,14.93
2019-04-07T03:56:02.097Z,9.60
2019-04-07T03:58:28.245Z,7.72
2019-04-07T04:00:55.095Z,7.62
2019-04-07T04:03:21.405Z,6.17
2019-04-07T04:05:48.871Z,5.65
2019-04-07T04:08:15.984Z,5.62
2019-04-07T04:10:42.488Z,5.65
2019-04-07T04:13:09.127Z,5.78
2019-04-07T04:15:36.423Z,5.37
2019-04-07T04:18:03.465Z,4.97
2019-04-07T04:20:30.260Z,4.40
2019-04-07T04:22:57.198Z,4.70
2019-04-07T04:25:24.461Z,4.97
2019-04-07T04:27:51.017Z,5.15
2019-04-07T04:30:17.379Z,5.35
2019-04-07T04:32:43.791Z,5.58
2019-04-07T04:35:10.750Z,5.47
2019-04-07T04:37:44.257Z,5.10
2019-04-07T04:40:05.129Z,5.45
2019-04-07T04:42:31.313Z,5.40
2019-04-07T04:44:58.739Z,5.05
2019-04-07T04:47:25.234Z,5.12
2019-04-07T04:49:52.668Z,4.70
2019-04-07T04:52:20.597Z,5.95
2019-04-07T04:54:47.523Z,5.62
2019-04-07T04:57:14.287Z,7.05
2019-04-07T04:59:40.613Z,5.67
2019-04-07T05:02:06.796Z,6.08
2019-04-07T05:04:32.939Z,5.83
2019-04-07T05:06:59.379Z,6.22
2019-04-07T05:09:33.996Z,6.80
2019-04-07T05:11:53.994Z,7.70
2019-04-07T05:14:20.192Z,6.80
2019-04-07T05:16:46.449Z,6.95
2019-04-07T05:19:12.621Z,5.62
2019-04-07T05:21:39.399Z,5.30
2019-04-07T05:24:05.759Z,5.25
2019-04-07T05:26:32.007Z,5.28
2019-04-07T05:28:58.303Z,5.70
2019-04-07T05:31:24.654Z,4.72
2019-04-07T05:33:51.041Z,5.10
2019-04-07T05:36:17.378Z,5.53
2019-04-07T05:38:43.496Z,5.17
2019-04-07T05:41:09.658Z,5.42
2019-04-07T05:43:35.818Z,5.10
2019-04-07T05:46:01.952Z,5.70
2019-04-07T05:48:28.108Z,5.25
2019-04-07T05:50:56.119Z,5.10
2019-04-07T05:53:22.204Z,4.70
2019-04-07T05:55:49.135Z,4.90
2019-04-07T05:58:15.868Z,5.12
2019-04-07T06:00:45.820Z,5.80
2019-04-07T06:03:10.057Z,5.15
2019-04-07T06:05:36.903Z,5.10
2019-04-07T06:08:20.864Z,5.05
2019-04-07T06:10:30.949Z,5.60
2019-04-07T06:12:57.397Z,5.30
2019-04-07T06:15:23.642Z,4.62
2019-04-07T06:17:50.064Z,4.85
2019-04-07T06:20:17.795Z,5.10
2019-04-07T06:22:46.645Z,4.80
2019-04-07T06:25:13.068Z,5.47
2019-04-07T06:27:39.405Z,4.67
2019-04-07T06:30:05.639Z,5.25
2019-04-07T06:32:35.212Z,5.55
2019-04-07T06:34:59.697Z,4.92
2019-04-07T06:37:29.169Z,5.28
2019-04-07T06:39:53.723Z,4.90
2019-04-07T06:42:19.971Z,4.72
2019-04-07T06:44:46.239Z,5.05
2019-04-07T06:47:13.175Z,4.58
2019-04-07T06:49:43.369Z,4.70
2019-04-07T06:52:08.346Z,5.10
2019-04-07T06:54:35.190Z,4.92
2019-04-07T06:57:04.347Z,5.40
2019-04-07T06:59:29.345Z,4.90
2019-04-07T07:01:58.161Z,4.87
2019-04-07T07:04:23.460Z,4.53
2019-04-07T07:06:50.231Z,4.97
2019-04-07T07:09:16.633Z,4.60
2019-04-07T07:11:44.248Z,5.10
2019-04-07T07:14:14.017Z,4.67
2019-04-07T07:16:42.653Z,4.47
2019-04-07T07:19:07.235Z,5.35
2019-04-07T07:21:36.482Z,4.67
2019-04-07T07:24:02.334Z,4.40
2019-04-07T07:26:28.510Z,4.78
2019-04-07T07:28:55.891Z,4.72
2019-04-07T07:31:24.708Z,5.00
2019-04-07T07:33:50.087Z,4.58
2019-04-07T07:36:18.372Z,4.53
2019-04-07T07:38:55.778Z,4.47
2019-04-07T07:41:12.018Z,4.65
2019-04-07T07:43:38.243Z,4.58
2019-04-07T07:46:04.425Z,4.25
2019-04-07T07:48:31.377Z,4.83
2019-04-07T07:50:57.622Z,4.28
2019-04-07T07:53:27.281Z,4.53
2019-04-07T07:55:51.667Z,4.60
2019-04-07T07:58:18.194Z,4.67
2019-04-07T08:00:44.907Z,4.72
2019-04-07T08:03:11.171Z,4.60
2019-04-07T08:05:37.630Z,4.53
2019-04-07T08:08:04.681Z,4.87
2019-04-07T08:10:30.889Z,4.12
2019-04-07T08:12:57.430Z,4.33
2019-04-07T08:15:27.393Z,4.70
2019-04-07T08:17:52.093Z,5.00
2019-04-07T08:20:18.564Z,5.45
2019-04-07T08:22:45.022Z,4.83
2019-04-07T08:25:11.309Z,5.85
2019-04-07T08:27:37.463Z,5.78
2019-04-07T08:30:03.873Z,5.90
2019-04-07T08:32:32.285Z,5.85
2019-04-07T08:35:02.088Z,6.40
2019-04-07T08:37:26.127Z,6.95
2019-04-07T08:39:52.618Z,7.47
2019-04-07T08:42:19.759Z,6.35
2019-04-07T08:44:47.359Z,7.40
2019-04-07T08:47:19.144Z,7.83
2019-04-07T08:49:41.677Z,7.20
2019-04-07T08:52:10.229Z,8.33
2019-04-07T08:54:35.820Z,8.33
2019-04-07T08:57:01.974Z,8.73
2019-04-07T08:59:28.228Z,7.78
2019-04-07T09:01:54.548Z,7.62
2019-04-07T09:04:20.782Z,6.97
2019-04-07T09:06:47.514Z,7.55
2019-04-07T09:09:14.062Z,8.18
2019-04-07T09:11:41.599Z,6.92
2019-04-07T09:14:08.770Z,6.92
2019-04-07T09:16:35.866Z,6.67
2019-04-07T09:19:04.913Z,7.22
2019-04-07T09:21:38.840Z,7.47
2019-04-07T09:23:57.928Z,6.33
2019-04-07T09:26:24.084Z,6.28
2019-04-07T09:28:53.383Z,6.22
2019-04-07T09:31:18.596Z,5.85
2019-04-07T09:33:48.089Z,6.05
2019-04-07T09:36:13.372Z,6.17
2019-04-07T09:38:39.700Z,6.22
2019-04-07T09:41:06.221Z,6.37
2019-04-07T09:43:32.494Z,6.08
2019-04-07T09:45:59.402Z,5.42
2019-04-07T09:48:25.677Z,6.55
2019-04-07T09:50:54.965Z,5.67
2019-04-07T09:53:20.698Z,5.47
2019-04-07T09:55:48.948Z,5.45
2019-04-07T09:58:15.943Z,5.20
2019-04-07T10:00:42.245Z,5.17
2019-04-07T10:03:12.681Z,5.15
2019-04-07T10:05:36.372Z,5.95
2019-04-07T10:08:03.203Z,5.53
2019-04-07T10:10:30.355Z,5.53
2019-04-07T10:12:56.674Z,5.58
2019-04-07T10:15:22.845Z,5.60
2019-04-07T10:17:49.560Z,6.12
2019-04-07T10:20:15.844Z,6.03
2019-04-07T10:22:42.887Z,5.70
2019-04-07T10:25:09.294Z,5.42
2019-04-07T10:27:35.462Z,6.42
2019-04-07T10:30:01.756Z,5.92
2019-04-07T10:32:27.927Z,5.85
2019-04-07T10:34:54.352Z,6.03
2019-04-07T10:37:20.918Z,6.20
2019-04-07T10:39:47.128Z,5.47
2019-04-07T10:42:13.746Z,5.80
2019-04-07T10:44:40.237Z,6.12
2019-04-07T10:47:07.154Z,5.62
2019-04-07T10:49:34.043Z,5.92
2019-04-07T10:52:01.175Z,5.72
2019-04-07T10:54:27.347Z,5.55
2019-04-07T10:56:54.158Z,5.28
2019-04-07T10:59:20.962Z,6.28
2019-04-07T11:01:47.257Z,5.95
2019-04-07T11:04:13.839Z,6.37
2019-04-07T11:06:40.619Z,5.53
2019-04-07T11:09:06.890Z,6.70
2019-04-07T11:11:33.089Z,5.83
2019-04-07T11:13:59.751Z,5.90
2019-04-07T11:16:26.287Z,5.70
2019-04-07T11:18:53.016Z,5.50
2019-04-07T11:21:19.339Z,6.35
2019-04-07T11:23:45.501Z,6.37
2019-04-07T11:26:12.400Z,6.22
2019-04-07T11:28:39.001Z,5.60
2019-04-07T11:31:05.735Z,6.53
2019-04-07T11:33:31.949Z,6.30
2019-04-07T11:35:58.512Z,5.90
2019-04-07T11:38:25.558Z,6.10
2019-04-07T11:40:52.461Z,6.12
2019-04-07T11:43:19.507Z,6.90
2019-04-07T11:45:56.430Z,7.03
2019-04-07T11:48:14.395Z,6.53
2019-04-07T11:50:40.725Z,6.47
2019-04-07T11:53:07.568Z,7.20
2019-04-07T11:55:33.785Z,6.85
2019-04-07T11:58:09.699Z,7.30
2019-04-07T12:00:28.089Z,6.33
2019-04-07T12:02:54.570Z,6.00
2019-04-07T12:05:22.392Z,5.87
2019-04-07T12:07:52.982Z,6.47
2019-04-07T12:10:16.472Z,6.65
2019-04-07T12:12:42.631Z,6.62
2019-04-07T12:15:09.456Z,6.10
2019-04-07T12:17:39.503Z,6.37
2019-04-07T12:20:04.263Z,6.78
2019-04-07T12:22:30.696Z,6.17
2019-04-07T12:25:00.685Z,6.70
2019-04-07T12:27:24.686Z,7.05
2019-04-07T12:29:51.580Z,6.10
2019-04-07T12:32:18.191Z,6.83
2019-04-07T12:34:46.626Z,7.22
2019-04-07T12:37:12.265Z,7.22
2019-04-07T12:39:38.723Z,7.60
2019-04-07T12:42:07.098Z,15.30
2019-04-07T12:44:33.230Z,10.75
2019-04-07T12:46:59.474Z,10.82
2019-04-07T12:49:25.684Z,11.08
2019-04-07T12:51:54.339Z,11.93
2019-04-07T12:54:20.626Z,9.88
2019-04-07T12:56:47.757Z,9.45
2019-04-07T12:59:15.892Z,8.93
2019-04-07T13:01:47.099Z,8.98
2019-04-07T13:04:10.130Z,9.03
2019-04-07T13:06:38.521Z,8.38
2019-04-07T13:09:04.216Z,8.88
2019-04-07T13:11:36.213Z,8.35
2019-04-07T13:14:03.341Z,8.40
2019-04-07T13:16:26.505Z,8.20
2019-04-07T13:18:52.900Z,8.00
2019-04-07T13:21:22.365Z,8.38
2019-04-07T13:23:47.130Z,8.30
2019-04-07T13:26:13.254Z,8.40
2019-04-07T13:28:40.147Z,8.18
2019-04-07T13:31:06.497Z,8.05
2019-04-07T13:33:33.014Z,8.30
2019-04-07T13:35:59.592Z,7.70
2019-04-07T13:38:26.244Z,8.25
2019-04-07T13:40:53.089Z,8.28
2019-04-07T13:43:19.352Z,7.47
2019-04-07T13:45:46.797Z,7.50
2019-04-07T13:48:15.857Z,8.28
2019-04-07T13:50:41.519Z,7.78
2019-04-07T13:53:07.791Z,7.33
2019-04-07T13:55:35.061Z,7.10
2019-04-07T13:58:02.604Z,7.17
2019-04-07T14:00:28.864Z,7.78
2019-04-07T14:02:55.069Z,7.92
2019-04-07T14:05:21.279Z,7.85
2019-04-07T14:07:51.564Z,7.33
2019-04-07T14:10:15.567Z,7.40
2019-04-07T14:12:42.229Z,7.35
2019-04-07T14:15:09.396Z,7.70
2019-04-07T14:17:36.302Z,7.90
2019-04-07T14:20:02.577Z,8.13
2019-04-07T14:22:28.748Z,7.37
2019-04-07T14:24:54.903Z,7.20
2019-04-07T14:27:22.001Z,7.28
2019-04-07T14:29:48.238Z,7.30
2019-04-07T14:32:16.114Z,7.30
2019-04-07T14:34:42.283Z,7.08
2019-04-07T14:37:08.455Z,6.90
2019-04-07T14:39:34.610Z,6.92
2019-04-07T14:42:04.497Z,7.80
2019-04-07T14:44:29.324Z,6.80
2019-04-07T14:46:55.655Z,7.40
2019-04-07T14:49:21.832Z,7.47
2019-04-07T14:51:48.302Z,7.25
2019-04-07T14:54:15.262Z,7.17
2019-04-07T14:56:42.144Z,6.67
2019-04-07T14:59:09.198Z,7.40
2019-04-07T15:01:35.474Z,7.12
2019-04-07T15:04:02.253Z,6.97
2019-04-07T15:06:32.955Z,7.50
2019-04-07T15:08:56.445Z,7.25
2019-04-07T15:11:22.685Z,6.80
2019-04-07T15:13:49.456Z,6.90
2019-04-07T15:16:16.532Z,6.97
2019-04-07T15:18:42.694Z,7.50
2019-04-07T15:21:08.857Z,6.42
2019-04-07T15:23:35.034Z,6.85
2019-04-07T15:26:02.013Z,7.40
2019-04-07T15:28:31.451Z,6.62
2019-04-07T15:30:56.807Z,7.10
2019-04-07T15:33:23.133Z,6.92
2019-04-07T15:35:50.582Z,6.42
2019-04-07T15:38:16.935Z,6.87
2019-04-07T15:40:44.753Z,6.20
2019-04-07T15:43:11.737Z,6.60
2019-04-07T15:45:39.690Z,6.90
2019-04-07T15:48:07.085Z,6.62
2019-04-07T15:50:34.311Z,6.42
2019-04-07T15:53:00.458Z,6.40
2019-04-07T15:55:42.358Z,6.78
2019-04-07T15:57:57.215Z,6.50
2019-04-07T16:00:22.390Z,7.40
2019-04-07T16:02:50.218Z,6.45
2019-04-07T16:05:16.451Z,6.97
2019-04-07T16:07:42.616Z,6.22
2019-04-07T16:10:08.788Z,6.10
2019-04-07T16:12:44.887Z,6.60
2019-04-07T16:15:02.826Z,6.15
2019-04-07T16:17:29.907Z,6.33
2019-04-07T16:19:56.862Z,6.00
2019-04-07T16:22:23.015Z,6.20
2019-04-07T16:24:51.571Z,5.70
2019-04-07T16:27:17.282Z,6.25
2019-04-07T16:29:43.506Z,6.28
2019-04-07T16:32:09.671Z,5.95
2019-04-07T16:34:39.010Z,6.05
2019-04-07T16:37:03.851Z,6.30
2019-04-07T16:39:33.563Z,5.87
2019-04-07T16:41:57.972Z,5.55
2019-04-07T16:44:24.525Z,5.80
2019-04-07T16:46:54.693Z,6.45
2019-04-07T16:49:19.273Z,5.72
2019-04-07T16:51:47.217Z,5.55
2019-04-07T16:54:14.360Z,5.90
2019-04-07T16:56:41.389Z,5.53
2019-04-07T16:59:09.663Z,6.28
2019-04-07T17:01:35.564Z,6.12
2019-04-07T17:04:01.727Z,5.58
2019-04-07T17:06:33.757Z,5.67
2019-04-07T17:08:55.758Z,5.72
2019-04-07T17:11:22.537Z,5.58
2019-04-07T17:13:49.154Z,5.58
2019-04-07T17:16:17.814Z,5.87
2019-04-07T17:18:43.323Z,6.40
2019-04-07T17:21:11.723Z,5.45
2019-04-07T17:23:37.398Z,5.87
2019-04-07T17:26:05.737Z,5.42
2019-04-07T17:28:31.439Z,5.62
2019-04-07T17:30:58.824Z,5.87
2019-04-07T17:33:26.393Z,5.75
2019-04-07T17:35:54.160Z,5.87
2019-04-07T17:38:21.448Z,6.15
2019-04-07T17:40:47.702Z,5.90
2019-04-07T17:43:17.339Z,6.22
2019-04-07T17:45:41.743Z,6.08
2019-04-07T17:48:07.906Z,6.12
2019-04-07T17:50:34.080Z,5.55
2019-04-07T17:53:00.240Z,5.95
2019-04-07T17:55:27.972Z,5.45
2019-04-07T17:57:54.609Z,5.78
2019-04-07T18:00:21.563Z,5.58
2019-04-07T18:02:54.797Z,5.70
2019-04-07T18:05:16.574Z,5.62
2019-04-07T18:07:44.686Z,5.33
2019-04-07T18:10:10.878Z,5.87
2019-04-07T18:12:37.702Z,5.72
2019-04-07T18:15:07.550Z,5.85
2019-04-07T18:17:31.948Z,6.20
2019-04-07T18:19:59.523Z,5.40
2019-04-07T18:22:26.045Z,5.20
2019-04-07T18:24:53.062Z,5.80
2019-04-07T18:27:19.526Z,5.92
2019-04-07T18:29:46.021Z,5.83
2019-04-07T18:32:12.236Z,6.00
2019-04-07T18:34:38.430Z,6.08
2019-04-07T18:37:06.973Z,6.17
2019-04-07T18:39:33.121Z,6.33
2019-04-07T18:42:02.006Z,5.55
2019-04-07T18:44:27.301Z,5.47
2019-04-07T18:46:53.622Z,6.22
2019-04-07T18:49:20.301Z,5.72
2019-04-07T18:51:48.408Z,6.12
2019-04-07T18:54:14.422Z,5.95
2019-04-07T18:56:41.696Z,5.78
2019-04-07T18:59:07.992Z,5.80
2019-04-07T19:01:34.228Z,5.72
2019-04-07T19:04:00.407Z,5.53
2019-04-07T19:06:26.537Z,6.05
2019-04-07T19:08:56.203Z,6.40
2019-04-07T19:11:24.321Z,5.60
2019-04-07T19:13:59.475Z,5.15
2019-04-07T19:16:20.233Z,5.65
2019-04-07T19:18:45.188Z,5.53
2019-04-07T19:21:13.842Z,5.58
2019-04-07T19:23:39.845Z,5.42
2019-04-07T19:26:06.288Z,5.47
2019-04-07T19:28:35.575Z,5.78
2019-04-07T19:31:00.503Z,5.97
2019-04-07T19:33:27.069Z,6.45
2019-04-07T19:35:53.973Z,6.20
2019-04-07T19:38:22.432Z,5.85
2019-04-07T19:40:49.236Z,5.95
2019-04-07T19:43:16.484Z,6.58
2019-04-07T19:45:43.417Z,6.60
2019-04-07T19:48:11.104Z,6.67
2019-04-07T19:50:37.688Z,6.53
2019-04-07T19:53:09.688Z,7.33
2019-04-07T19:55:32.479Z,6.53
2019-04-07T19:58:01.924Z,7.12
2019-04-07T20:00:27.761Z,6.47
2019-04-07T20:02:55.250Z,6.12
2019-04-07T20:05:21.557Z,6.55
2019-04-07T20:07:48.316Z,6.00
2019-04-07T20:10:20.632Z,6.55
2019-04-07T20:12:43.891Z,6.92
2019-04-07T20:15:13.538Z,6.70
2019-04-07T20:17:38.842Z,7.15
2019-04-07T20:20:08.865Z,6.95
2019-04-07T20:22:33.044Z,8.15
2019-04-07T20:24:59.210Z,8.80
2019-04-07T20:27:28.090Z,7.78
2019-04-07T20:29:54.023Z,8.53
2019-04-07T20:32:21.298Z,7.87
2019-04-07T20:34:48.383Z,8.58
2019-04-07T20:37:15.073Z,8.70
2019-04-07T20:39:41.353Z,8.10
2019-04-07T20:42:07.514Z,8.60
2019-04-07T20:44:35.206Z,9.15
2019-04-07T20:47:01.709Z,9.30
2019-04-07T20:49:28.026Z,8.65
2019-04-07T20:51:54.514Z,8.88
2019-04-07T20:54:21.595Z,7.72
2019-04-07T20:56:48.390Z,7.95
2019-04-07T20:59:14.578Z,8.53
2019-04-07T21:01:42.994Z,8.65
2019-04-07T21:04:08.766Z,8.35
2019-04-07T21:06:35.777Z,7.72
2019-04-07T21:09:03.631Z,7.75
2019-04-07T21:11:29.945Z,7.67
2019-04-07T21:13:56.648Z,8.18
2019-04-07T21:16:27.545Z,8.28
2019-04-07T21:18:50.807Z,8.10
2019-04-07T21:21:17.164Z,8.28
2019-04-07T21:23:45.598Z,8.75
2019-04-07T21:26:11.288Z,8.13
2019-04-07T21:28:38.091Z,8.23
2019-04-07T21:31:05.519Z,8.88
2019-04-07T21:33:32.489Z,8.40
2019-04-07T21:35:58.967Z,7.87
2019-04-07T21:38:26.151Z,8.90
2019-04-07T21:40:52.961Z,7.85
2019-04-07T21:43:20.037Z,8.45
2019-04-07T21:45:50.364Z,8.10
2019-04-07T21:48:14.142Z,7.90
2019-04-07T21:50:42.495Z,9.13
2019-04-07T21:53:08.213Z,8.25
2019-04-07T21:55:43.662Z,8.65
2019-04-07T21:58:10.736Z,9.30
2019-04-07T22:00:37.071Z,8.78
2019-04-07T22:03:03.438Z,8.88
2019-04-07T22:05:29.800Z,8.70
2019-04-07T22:07:56.019Z,8.75
2019-04-07T22:10:23.006Z,8.58
2019-04-07T22:12:49.836Z,8.73
2019-04-07T22:15:16.093Z,10.30
2019-04-07T22:17:42.251Z,9.03
2019-04-07T22:20:08.540Z,8.98
2019-04-07T22:22:35.259Z,8.48
2019-04-07T22:25:05.988Z,9.08
2019-04-07T22:27:30.304Z,9.08
2019-04-07T22:29:59.459Z,9.10
2019-04-07T22:32:24.683Z,9.33
2019-04-07T22:34:50.837Z,9.00
2019-04-07T22:37:18.403Z,9.25
2019-04-07T22:39:45.648Z,9.65
2019-04-07T22:42:15.212Z,9.93
2019-04-07T22:44:39.793Z,9.33
2019-04-07T22:47:05.960Z,9.95
2019-04-07T22:49:32.467Z,8.95
2019-04-07T22:51:58.974Z,9.85
2019-04-07T22:54:29.510Z,9.13
2019-04-07T22:56:53.018Z,9.13
2019-04-07T22:59:19.624Z,9.63
2019-04-07T23:01:45.869Z,9.33
2019-04-07T23:04:12.059Z,9.48
2019-04-07T23:06:38.387Z,9.18
2019-04-07T23:09:04.556Z,9.75
2019-04-07T23:11:30.716Z,9.40
2019-04-07T23:13:56.884Z,9.48
2019-04-07T23:16:23.976Z,8.53
2019-04-07T23:18:50.176Z,9.50
2019-04-07T23:21:17.260Z,9.45
2019-04-07T23:23:43.470Z,10.58
2019-04-07T23:26:09.627Z,10.10
2019-04-07T23:28:35.987Z,10.25
2019-04-07T23:31:02.144Z,10.18
2019-04-07T23:33:28.307Z,11.03
2019-04-07T23:35:55.410Z,9.50
2019-04-07T23:38:21.950Z,10.32
2019-04-07T23:40:48.261Z,9.48
2019-04-07T23:43:15.273Z,9.90
2019-04-07T23:45:41.977Z,9.50
2019-04-07T23:48:08.387Z,10.60
2019-04-07T23:50:34.553Z,10.63
2019-04-07T23:53:00.724Z,10.43
2019-04-07T23:55:27.515Z,9.85
2019-04-07T23:57:54.283Z,10.18
